Fountain Bluff, Illinois
Current Conditions -  °F | °C
As of 6:52 AM on Saturday 20 Dec 2014 (Local Time) from KMDH Reporting Station
Overcast Overcast  
Wind Chill: 33°   Ceiling: 4200
Heat Index: 33°   Visibility: 9mi
Dew Point: 28°   Wind: 0mph
Humidity: 82%   Direction: NA
Pressure: 30.29"   Gusts: NA
Location:  37.7458°N, 89.5469°W
Report Text: KMDH 201252Z AUTO 00000KT 9SM OVC042 01/M02 A3029 RMK AO2 SLP259 T00061022
Loading
Personal Weather Stations






























Interactive Weather Map New forecast layout! Learn more

10-Day Weather Forecast

Advertisements
Track Severe Weather on mobile